Time;durP1;ratioP1;P1;durP2;ratioP2;P2;SDS_P1;SDS_P2;PMS_P1;PMS_P2;Temp;Humidity;BMP_temperature;BMP_pressure;BME280_temperature;BME280_humidity;BME280_pressure;Samples;Min_cycle;Max_cycle;Signal;HPM_P1;HPM_P2
2023/03/24 00:01:54;;;;;;;2.30;2.20;;;11.10;99.90;;;;;;5159988;28;20229;-49
2023/03/24 00:04:26;;;;;;;2.50;2.27;;;11.10;99.90;;;;;;5145625;28;20444;-49
2023/03/24 00:06:57;;;;;;;4.00;2.77;;;11.10;99.90;;;;;;5159630;28;20441;-47
2023/03/24 00:09:29;;;;;;;3.80;3.13;;;11.20;99.90;;;;;;5148832;28;20424;-47
2023/03/24 00:11:59;;;;;;;5.30;2.93;;;11.00;99.90;;;;;;5146598;28;20304;-47
2023/03/24 00:14:30;;;;;;;2.63;2.43;;;10.80;99.90;;;;;;5147133;28;20492;-46
2023/03/24 00:17:01;;;;;;;2.80;2.60;;;11.00;99.90;;;;;;5142683;28;20725;-46
2023/03/24 00:19:32;;;;;;;2.60;2.50;;;10.80;99.90;;;;;;5145709;28;20185;-48
2023/03/24 00:22:08;;;;;;;2.03;1.93;;;10.90;99.90;;;;;;5147076;28;20213;-48
2023/03/24 00:24:39;;;;;;;3.20;2.80;;;10.70;99.90;;;;;;5145335;28;20515;-48
2023/03/24 00:27:12;;;;;;;6.17;2.30;;;10.70;99.90;;;;;;5142976;28;20444;-47
2023/03/24 00:29:43;;;;;;;2.20;2.10;;;10.60;99.90;;;;;;5148792;28;20442;-48
2023/03/24 00:32:14;;;;;;;6.50;2.77;;;10.80;99.90;;;;;;5126473;28;20468;-48
2023/03/24 00:34:45;;;;;;;2.40;2.30;;;11.00;99.90;;;;;;5144070;28;20186;-47
2023/03/24 00:37:15;;;;;;;2.40;2.27;;;11.10;99.90;;;;;;5148090;28;20499;-47
2023/03/24 00:39:46;;;;;;;2.23;2.10;;;11.00;99.90;;;;;;5145294;28;20186;-48
2023/03/24 00:42:16;;;;;;;3.00;2.70;;;11.10;99.90;;;;;;5144599;28;20212;-47
2023/03/24 00:44:47;;;;;;;2.50;2.30;;;11.20;99.90;;;;;;5128850;28;20209;-47
2023/03/24 00:47:24;;;;;;;3.53;2.00;;;11.20;99.90;;;;;;5146264;28;20594;-46
2023/03/24 00:49:56;;;;;;;1.97;1.87;;;11.10;99.90;;;;;;5144422;28;20233;-47
2023/03/24 00:52:32;;;;;;;2.37;2.23;;;11.20;99.90;;;;;;5139487;28;20530;-48
2023/03/24 00:55:05;;;;;;;2.20;2.10;;;11.10;99.90;;;;;;5145267;28;20445;-47
2023/03/24 00:57:35;;;;;;;2.63;2.53;;;11.10;99.90;;;;;;5145522;28;20432;-46
2023/03/24 01:00:18;;;;;;;2.30;2.10;;;11.10;99.90;;;;;;5145288;28;20512;-47
2023/03/24 01:02:54;;;;;;;2.53;2.47;;;10.90;99.90;;;;;;5142884;28;20188;-47
2023/03/24 01:05:29;;;;;;;5.53;2.57;;;11.00;99.90;;;;;;5141618;28;20437;-46
2023/03/24 01:08:03;;;;;;;2.20;2.10;;;11.00;99.90;;;;;;5140348;28;20440;-48
2023/03/24 01:10:51;;;;;;;2.30;2.20;;;11.10;99.90;;;;;;5146630;28;20479;-47
2023/03/24 01:13:25;;;;;;;4.80;2.37;;;11.00;99.90;;;;;;5145062;28;20585;-46
2023/03/24 01:15:57;;;;;;;2.13;2.03;;;10.90;99.90;;;;;;5143843;28;20441;-46
2023/03/24 01:18:28;;;;;;;1.60;1.60;;;11.00;99.90;;;;;;5145329;28;20436;-47
2023/03/24 01:21:00;;;;;;;2.60;2.40;;;11.20;99.90;;;;;;5142066;28;20473;-47
2023/03/24 01:23:30;;;;;;;1.60;1.60;;;11.20;99.90;;;;;;5145035;28;20437;-47
2023/03/24 01:26:06;;;;;;;2.10;1.70;;;11.30;99.90;;;;;;5142787;28;20786;-51
2023/03/24 01:28:39;;;;;;;2.17;2.00;;;11.20;99.90;;;;;;5144520;28;20697;-51
2023/03/24 01:31:10;;;;;;;2.17;2.00;;;11.10;99.90;;;;;;5143077;28;20469;-50
2023/03/24 01:33:41;;;;;;;2.20;1.97;;;11.10;99.90;;;;;;5142452;28;20444;-47
2023/03/24 01:36:12;;;;;;;1.80;1.80;;;11.30;99.90;;;;;;5143656;28;20480;-47
2023/03/24 01:38:42;;;;;;;2.30;1.90;;;11.20;99.90;;;;;;5145836;28;20186;-48
2023/03/24 01:41:13;;;;;;;2.03;1.93;;;11.40;99.90;;;;;;5145779;28;20631;-49
2023/03/24 01:43:44;;;;;;;2.03;1.80;;;11.30;99.90;;;;;;5148972;28;20186;-49
2023/03/24 01:46:22;;;;;;;9.60;2.60;;;11.20;99.90;;;;;;5147608;28;20184;-50
2023/03/24 01:48:58;;;;;;;2.20;2.10;;;11.30;99.90;;;;;;5145341;28;20181;-49
2023/03/24 01:51:37;;;;;;;3.07;2.03;;;11.10;99.90;;;;;;5141862;28;20539;-49
2023/03/24 01:54:18;;;;;;;2.70;2.43;;;11.20;99.90;;;;;;5135974;28;20595;-49
2023/03/24 01:57:16;;;;;;;2.00;1.80;;;11.10;99.90;;;;;;5145751;28;20436;-48
2023/03/24 01:59:50;;;;;;;7.03;2.30;;;11.00;99.90;;;;;;5135420;28;20799;-50
2023/03/24 02:02:21;;;;;;;2.00;2.00;;;11.00;99.90;;;;;;5144423;28;20453;-47
2023/03/24 02:04:58;;;;;;;2.17;2.07;;;11.10;99.90;;;;;;5150925;28;20437;-46
2023/03/24 02:07:55;;;;;;;3.23;1.70;;;11.10;99.90;;;;;;5140040;28;20433;-49
2023/03/24 02:10:26;;;;;;;2.17;1.97;;;11.10;99.90;;;;;;5143772;28;20468;-49
2023/03/24 02:12:56;;;;;;;3.23;2.87;;;11.00;99.90;;;;;;5147796;28;20443;-49
2023/03/24 02:15:30;;;;;;;3.33;2.07;;;11.10;99.90;;;;;;5147528;28;20453;-49
2023/03/24 02:18:26;;;;;;;2.70;2.40;;;11.20;99.90;;;;;;5143392;28;20189;-48
2023/03/24 02:21:09;;;;;;;5.57;2.50;;;11.30;99.90;;;;;;5142666;28;21001;-49
2023/03/24 02:24:17;;;;;;;2.63;2.53;;;11.40;99.90;;;;;;5146059;28;20444;-49
2023/03/24 02:27:25;;;;;;;2.50;1.93;;;11.30;99.90;;;;;;5145002;28;20848;-49
2023/03/24 02:29:56;;;;;;;1.87;1.80;;;11.20;99.90;;;;;;5141121;28;20441;-49
2023/03/24 02:33:00;;;;;;;2.10;2.10;;;11.20;99.90;;;;;;5140566;28;20454;-48
2023/03/24 02:36:10;;;;;;;2.50;2.40;;;11.40;99.90;;;;;;5144042;28;20259;-49
2023/03/24 02:39:08;;;;;;;2.07;1.83;;;11.30;99.90;;;;;;5152494;28;20428;-49
2023/03/24 02:41:57;;;;;;;1.80;1.80;;;11.40;99.90;;;;;;5142874;28;20473;-48
2023/03/24 02:44:43;;;;;;;2.60;2.40;;;11.30;99.90;;;;;;5141952;28;20924;-49
2023/03/24 02:47:32;;;;;;;6.33;2.60;;;11.50;99.90;;;;;;5137212;28;20417;-48
2023/03/24 02:50:16;;;;;;;2.17;2.07;;;11.50;99.90;;;;;;5138394;28;20448;-47
2023/03/24 02:52:58;;;;;;;2.50;2.30;;;11.40;99.90;;;;;;5139569;28;20932;-48
2023/03/24 02:55:45;;;;;;;2.57;2.37;;;11.40;99.90;;;;;;5141739;28;20456;-48
2023/03/24 02:58:31;;;;;;;10.43;2.77;;;11.40;99.90;;;;;;5142043;28;20444;-48
2023/03/24 03:01:07;;;;;;;7.23;3.80;;;11.40;99.90;;;;;;5140800;28;20599;-49
2023/03/24 03:03:43;;;;;;;3.87;2.57;;;11.20;99.90;;;;;;5146133;28;20449;-47
2023/03/24 03:06:24;;;;;;;7.10;2.23;;;11.00;99.90;;;;;;5142495;28;20543;-46
2023/03/24 03:08:59;;;;;;;2.90;2.70;;;10.90;99.90;;;;;;5157856;28;20436;-48
2023/03/24 03:11:29;;;;;;;2.63;2.37;;;10.80;99.90;;;;;;5144695;28;20458;-50
2023/03/24 03:14:08;;;;;;;2.50;2.30;;;10.70;99.90;;;;;;5151253;28;20524;-49
2023/03/24 03:16:45;;;;;;;2.50;2.30;;;10.70;99.90;;;;;;5146150;28;20200;-47
2023/03/24 03:19:21;;;;;;;3.50;2.57;;;10.70;99.90;;;;;;5143453;28;20444;-49
2023/03/24 03:21:52;;;;;;;4.80;2.30;;;10.50;99.90;;;;;;5143137;28;20476;-50
2023/03/24 03:24:31;;;;;;;1.97;1.87;;;10.60;99.90;;;;;;5157976;28;20433;-49
2023/03/24 03:27:07;;;;;;;2.27;2.00;;;10.70;99.90;;;;;;5150710;28;20432;-49
2023/03/24 03:29:42;;;;;;;2.33;2.23;;;10.70;99.90;;;;;;5152174;28;20487;-49
2023/03/24 03:32:23;;;;;;;2.10;1.83;;;10.80;99.90;;;;;;5149234;28;20460;-50
2023/03/24 03:35:05;;;;;;;2.60;2.40;;;10.60;99.90;;;;;;5144494;28;20441;-49
2023/03/24 03:37:59;;;;;;;2.23;2.13;;;10.60;99.90;;;;;;5150472;28;20431;-50
2023/03/24 03:40:40;;;;;;;4.50;2.07;;;10.60;99.90;;;;;;5143067;28;20476;-46
2023/03/24 03:43:10;;;;;;;2.27;2.10;;;10.80;99.90;;;;;;5161884;28;20436;-48
2023/03/24 03:45:41;;;;;;;2.53;2.20;;;10.70;99.90;;;;;;5143427;28;20439;-49
2023/03/24 03:48:12;;;;;;;2.57;2.47;;;10.70;99.90;;;;;;5145370;28;20636;-48
2023/03/24 03:50:43;;;;;;;2.80;2.70;;;10.60;99.90;;;;;;5136133;28;20209;-50
2023/03/24 03:53:18;;;;;;;2.40;2.30;;;10.60;99.90;;;;;;5146566;28;20453;-48
2023/03/24 03:55:49;;;;;;;4.67;2.70;;;10.70;99.90;;;;;;5143696;28;20170;-46
2023/03/24 03:58:19;;;;;;;1.90;1.80;;;10.60;99.90;;;;;;5144515;28;20451;-48
2023/03/24 04:00:50;;;;;;;4.77;2.77;;;10.70;99.90;;;;;;5146067;28;20666;-47
2023/03/24 04:03:49;;;;;;;3.33;3.13;;;10.70;99.90;;;;;;5165342;28;20805;-45
2023/03/24 04:06:43;;;;;;;2.57;2.37;;;10.70;99.90;;;;;;5147907;28;20190;-46
2023/03/24 04:09:39;;;;;;;5.13;2.73;;;10.80;99.90;;;;;;5157115;28;20472;-47
2023/03/24 04:12:23;;;;;;;2.30;2.20;;;10.80;99.90;;;;;;5159667;28;20523;-46
2023/03/24 04:15:08;;;;;;;3.07;2.97;;;10.80;99.90;;;;;;5146182;28;20429;-47
2023/03/24 04:18:00;;;;;;;3.03;2.93;;;10.70;99.90;;;;;;5152960;28;20433;-46
2023/03/24 04:20:37;;;;;;;3.43;3.20;;;10.90;99.90;;;;;;5147384;28;20468;-47
2023/03/24 04:23:13;;;;;;;3.13;2.93;;;10.70;99.90;;;;;;5151553;28;20929;-46
2023/03/24 04:25:55;;;;;;;12.93;3.30;;;10.70;99.90;;;;;;5144394;28;20425;-46
2023/03/24 04:28:48;;;;;;;2.97;2.87;;;10.70;99.90;;;;;;5148662;28;20854;-45
2023/03/24 04:32:05;;;;;;;3.70;3.50;;;10.80;99.90;;;;;;5148095;28;20465;-49
2023/03/24 04:34:43;;;;;;;3.30;3.10;;;10.90;99.90;;;;;;5141724;28;20437;-45
2023/03/24 04:37:23;;;;;;;3.13;2.87;;;10.90;99.90;;;;;;5149911;28;20874;-48
2023/03/24 04:39:57;;;;;;;4.97;3.60;;;11.00;99.90;;;;;;5147051;28;20440;-48
2023/03/24 04:42:52;;;;;;;6.30;3.70;;;10.80;99.90;;;;;;5148639;28;20490;-46
2023/03/24 04:45:24;;;;;;;4.37;3.97;;;11.00;99.90;;;;;;5146815;28;20473;-46
2023/03/24 04:47:59;;;;;;;3.40;2.60;;;11.00;99.90;;;;;;5142021;28;20433;-46
2023/03/24 04:50:36;;;;;;;3.73;3.37;;;11.00;99.90;;;;;;5161419;28;20450;-47
2023/03/24 04:53:08;;;;;;;5.57;3.40;;;11.00;99.90;;;;;;5149749;28;20448;-48
2023/03/24 04:55:48;;;;;;;4.20;3.90;;;11.00;99.90;;;;;;5143677;28;20438;-46
2023/03/24 04:58:21;;;;;;;3.57;3.23;;;11.10;99.90;;;;;;5147074;28;20468;-46
2023/03/24 05:00:51;;;;;;;3.90;3.67;;;11.10;99.90;;;;;;5145394;28;20468;-46
2023/03/24 05:03:24;;;;;;;4.20;3.80;;;11.20;99.90;;;;;;5141731;28;20933;-46
2023/03/24 05:05:54;;;;;;;3.57;2.90;;;11.10;99.90;;;;;;5151224;28;20174;-45
2023/03/24 05:08:25;;;;;;;8.17;3.50;;;11.10;99.90;;;;;;5148496;28;20437;-45
2023/03/24 05:10:56;;;;;;;4.03;3.70;;;11.40;99.90;;;;;;5150435;28;20209;-47
2023/03/24 05:13:26;;;;;;;4.27;3.87;;;11.30;99.90;;;;;;5146975;28;20177;-46
2023/03/24 05:15:57;;;;;;;4.27;3.97;;;11.30;99.90;;;;;;5146017;28;20657;-46
2023/03/24 05:18:28;;;;;;;4.70;4.20;;;11.30;99.90;;;;;;5152628;28;20182;-47
2023/03/24 05:20:59;;;;;;;3.30;3.07;;;11.40;99.90;;;;;;5151040;28;20253;-46
2023/03/24 05:23:29;;;;;;;3.73;3.53;;;11.50;99.90;;;;;;5146530;28;20185;-47
2023/03/24 05:26:00;;;;;;;9.47;4.83;;;11.40;99.90;;;;;;5144570;28;20437;-46
2023/03/24 05:28:31;;;;;;;4.13;3.57;;;11.40;99.90;;;;;;5133042;28;20174;-47
2023/03/24 05:31:02;;;;;;;3.20;3.10;;;11.50;99.90;;;;;;5139607;28;20301;-46
2023/03/24 05:33:33;;;;;;;3.27;3.07;;;11.60;99.90;;;;;;5146712;28;20189;-45
2023/03/24 05:36:04;;;;;;;4.07;3.77;;;11.70;99.90;;;;;;5148766;28;20443;-45
2023/03/24 05:38:34;;;;;;;3.03;2.83;;;11.80;99.90;;;;;;5164579;28;20881;-45
2023/03/24 05:41:05;;;;;;;4.13;3.80;;;11.80;99.90;;;;;;5164662;28;20469;-46
2023/03/24 05:43:36;;;;;;;5.73;3.97;;;11.80;99.90;;;;;;5151832;28;20194;-46
2023/03/24 05:46:07;;;;;;;4.60;3.13;;;11.90;99.90;;;;;;5150412;28;20552;-46
2023/03/24 05:48:37;;;;;;;5.20;3.60;;;11.90;99.90;;;;;;5144096;28;20208;-47
2023/03/24 05:51:08;;;;;;;3.97;3.57;;;11.90;99.90;;;;;;5145890;28;20252;-45
2023/03/24 05:53:39;;;;;;;4.00;3.70;;;11.90;99.90;;;;;;5148864;28;20204;-46
2023/03/24 05:56:12;;;;;;;4.00;3.63;;;11.80;99.90;;;;;;5148544;28;20178;-45
2023/03/24 05:58:43;;;;;;;4.40;3.50;;;11.90;99.90;;;;;;5142147;28;20193;-45
2023/03/24 06:01:17;;;;;;;4.03;3.73;;;12.00;99.90;;;;;;5143664;28;20472;-48
2023/03/24 06:03:48;;;;;;;3.60;3.40;;;11.90;99.90;;;;;;5141522;28;20433;-45
2023/03/24 06:06:19;;;;;;;2.90;2.80;;;12.00;99.90;;;;;;5129409;28;21032;-46
2023/03/24 06:08:53;;;;;;;5.10;3.73;;;12.00;99.90;;;;;;5142050;28;20437;-47
2023/03/24 06:11:23;;;;;;;3.70;3.43;;;12.00;99.90;;;;;;5145468;28;20207;-48
2023/03/24 06:13:59;;;;;;;4.07;3.47;;;12.20;99.90;;;;;;5131930;28;20942;-50
2023/03/24 06:16:32;;;;;;;3.37;3.03;;;12.10;99.90;;;;;;5136919;28;20177;-49
2023/03/24 06:19:05;;;;;;;4.40;3.97;;;12.20;99.90;;;;;;5143265;28;20785;-51
2023/03/24 06:21:36;;;;;;;3.83;3.63;;;12.20;99.90;;;;;;5140615;28;20473;-49
2023/03/24 06:24:07;;;;;;;3.73;3.53;;;12.20;99.90;;;;;;5134793;28;20445;-51
2023/03/24 06:26:40;;;;;;;3.70;3.17;;;12.20;99.90;;;;;;5149690;28;20189;-47
2023/03/24 06:29:11;;;;;;;5.53;3.20;;;12.20;99.90;;;;;;5143131;28;20181;-49
2023/03/24 06:31:42;;;;;;;4.40;4.10;;;12.30;99.90;;;;;;5136212;28;21043;-50
2023/03/24 06:34:13;;;;;;;5.17;3.90;;;12.40;99.90;;;;;;5147493;28;20275;-50
2023/03/24 06:36:44;;;;;;;3.57;3.33;;;12.50;99.90;;;;;;5145180;28;20981;-48
2023/03/24 06:39:14;;;;;;;3.07;2.87;;;12.60;99.90;;;;;;5142994;28;20519;-51
2023/03/24 06:41:45;;;;;;;3.17;2.93;;;12.70;99.90;;;;;;5141824;28;20292;-48
2023/03/24 06:44:16;;;;;;;4.13;3.60;;;12.70;99.90;;;;;;5155401;28;20177;-50
2023/03/24 06:46:46;;;;;;;3.83;3.40;;;12.70;99.90;;;;;;5140575;28;20267;-47
2023/03/24 06:49:17;;;;;;;4.13;3.80;;;12.60;99.90;;;;;;5138918;28;20245;-49
2023/03/24 06:51:48;;;;;;;7.03;3.43;;;12.50;99.90;;;;;;5141013;28;20303;-49
2023/03/24 06:54:18;;;;;;;7.00;3.67;;;12.60;99.90;;;;;;5125438;28;20189;-50
2023/03/24 06:56:49;;;;;;;3.87;3.57;;;12.60;99.90;;;;;;5150878;28;20260;-49
2023/03/24 06:59:22;;;;;;;4.80;4.40;;;12.60;99.90;;;;;;5140583;28;20275;-50
2023/03/24 07:01:53;;;;;;;10.70;8.60;;;12.60;99.90;;;;;;5141320;28;20217;-48
2023/03/24 07:04:24;;;;;;;5.30;4.63;;;12.60;99.90;;;;;;5150947;28;20445;-49
2023/03/24 07:06:55;;;;;;;4.77;4.47;;;12.70;99.90;;;;;;5136084;28;20175;-49
2023/03/24 07:09:26;;;;;;;7.20;6.27;;;12.80;99.90;;;;;;5134876;28;20448;-50
2023/03/24 07:11:56;;;;;;;6.50;5.90;;;12.90;99.90;;;;;;5138835;28;20213;-51
2023/03/24 07:14:27;;;;;;;10.23;7.83;;;13.00;99.90;;;;;;5133012;28;20284;-49
2023/03/24 07:16:58;;;;;;;9.23;6.53;;;13.10;99.90;;;;;;5131222;28;20552;-49
2023/03/24 07:19:28;;;;;;;7.50;6.90;;;13.30;99.90;;;;;;5136327;28;20217;-52
2023/03/24 07:21:59;;;;;;;7.30;6.60;;;13.60;99.90;;;;;;5138743;28;20485;-51
2023/03/24 07:24:30;;;;;;;14.40;12.90;;;13.60;99.90;;;;;;5138582;28;20404;-49
2023/03/24 07:27:01;;;;;;;8.00;7.30;;;13.60;99.90;;;;;;5141990;28;20681;-50
2023/03/24 07:29:32;;;;;;;12.33;8.57;;;13.60;99.90;;;;;;5139850;28;20178;-51
2023/03/24 07:32:02;;;;;;;6.50;5.70;;;13.90;99.90;;;;;;5140874;28;20279;-51
2023/03/24 07:34:35;;;;;;;8.77;7.73;;;14.00;99.90;;;;;;5141236;28;20209;-50
2023/03/24 07:37:05;;;;;;;8.40;6.40;;;14.30;99.90;;;;;;5143283;28;20224;-49
2023/03/24 07:39:36;;;;;;;11.97;7.83;;;14.70;99.90;;;;;;5144152;28;20514;-53
2023/03/24 07:42:07;;;;;;;11.43;5.00;;;15.00;99.90;;;;;;5142339;28;20218;-50
2023/03/24 07:44:37;;;;;;;10.43;6.53;;;15.30;99.90;;;;;;5137625;28;20228;-51
2023/03/24 07:47:08;;;;;;;4.33;4.03;;;15.50;99.90;;;;;;5143189;28;20188;-48
2023/03/24 07:49:38;;;;;;;10.43;4.90;;;15.50;99.90;;;;;;5143554;28;20188;-48
2023/03/24 07:52:09;;;;;;;8.27;5.07;;;15.30;99.90;;;;;;5147506;28;20213;-46
2023/03/24 07:54:40;;;;;;;4.13;3.77;;;15.30;99.90;;;;;;5148715;28;20178;-45
2023/03/24 07:57:10;;;;;;;3.23;3.03;;;14.90;99.90;;;;;;5145044;28;20340;-46
2023/03/24 07:59:41;;;;;;;4.20;3.40;;;14.70;99.90;;;;;;5146487;28;20228;-46
2023/03/24 08:02:17;;;;;;;5.43;4.00;;;14.50;99.90;;;;;;5146260;28;20314;-46
2023/03/24 08:04:52;;;;;;;3.90;3.70;;;14.30;99.90;;;;;;5161309;28;20176;-47
2023/03/24 08:07:23;;;;;;;4.63;3.70;;;14.30;99.90;;;;;;5147610;28;20454;-46
2023/03/24 08:09:54;;;;;;;4.37;3.97;;;14.00;99.90;;;;;;5145069;28;20964;-47
2023/03/24 08:12:25;;;;;;;5.63;4.00;;;13.90;99.90;;;;;;5147605;28;20457;-47
2023/03/24 08:14:55;;;;;;;3.20;3.00;;;13.70;99.90;;;;;;5143423;28;20261;-52
2023/03/24 08:17:26;;;;;;;3.50;3.20;;;13.70;99.90;;;;;;5146735;28;20186;-46
2023/03/24 08:19:57;;;;;;;3.70;3.40;;;13.60;99.90;;;;;;5145147;28;20182;-48
2023/03/24 08:22:27;;;;;;;6.70;3.47;;;13.60;99.90;;;;;;5144814;28;20721;-47
2023/03/24 08:24:58;;;;;;;4.13;3.80;;;13.50;99.90;;;;;;5144032;28;20433;-49
2023/03/24 08:27:29;;;;;;;4.87;4.47;;;13.50;99.90;;;;;;5152970;28;20185;-50
2023/03/24 08:29:59;;;;;;;4.33;3.80;;;13.50;99.90;;;;;;5128243;28;20330;-47
2023/03/24 08:32:30;;;;;;;4.23;4.03;;;13.40;99.90;;;;;;5126239;28;20751;-49
2023/03/24 08:35:03;;;;;;;4.37;3.47;;;13.40;99.90;;;;;;5119060;28;20205;-48
2023/03/24 08:37:34;;;;;;;3.07;2.97;;;13.40;99.90;;;;;;5140897;28;20937;-47
2023/03/24 08:40:05;;;;;;;3.20;2.93;;;13.30;99.90;;;;;;5139263;28;20440;-48
2023/03/24 08:42:36;;;;;;;8.23;3.60;;;13.30;99.90;;;;;;5121373;28;20204;-47
2023/03/24 08:45:10;;;;;;;3.70;3.50;;;13.20;99.90;;;;;;5143387;28;20446;-48
2023/03/24 08:47:41;;;;;;;3.37;3.10;;;13.30;99.90;;;;;;5143643;28;20289;-48
2023/03/24 08:50:12;;;;;;;3.43;3.03;;;13.30;99.90;;;;;;5137472;28;20536;-48
2023/03/24 08:52:42;;;;;;;4.90;3.60;;;13.40;99.90;;;;;;5141580;28;20181;-47
2023/03/24 08:55:15;;;;;;;3.73;3.50;;;13.30;99.90;;;;;;5144699;28;21555;-46
2023/03/24 08:57:47;;;;;;;3.40;3.10;;;13.30;99.90;;;;;;5145177;28;20181;-46
2023/03/24 09:00:19;;;;;;;4.23;3.20;;;13.40;99.90;;;;;;5143784;28;20464;-47
2023/03/24 09:02:54;;;;;;;5.40;3.00;;;13.50;99.90;;;;;;5146669;28;20417;-46
2023/03/24 09:05:25;;;;;;;4.30;3.80;;;13.70;99.90;;;;;;5142694;28;20427;-47
2023/03/24 09:07:57;;;;;;;10.53;3.67;;;13.70;99.90;;;;;;5141690;28;20433;-48
2023/03/24 09:10:28;;;;;;;6.50;4.60;;;13.80;99.90;;;;;;5121577;28;20477;-46
2023/03/24 09:12:59;;;;;;;3.50;3.07;;;13.90;99.90;;;;;;5136331;28;20507;-47
2023/03/24 09:15:30;;;;;;;4.13;3.67;;;14.00;99.90;;;;;;5122045;28;20194;-49
2023/03/24 09:18:01;;;;;;;4.20;3.80;;;14.10;99.90;;;;;;5144375;28;20781;-47
2023/03/24 09:20:32;;;;;;;3.70;3.40;;;14.20;99.90;;;;;;5139394;28;20499;-48
2023/03/24 09:23:02;;;;;;;3.30;3.10;;;14.20;99.90;;;;;;5138551;28;20437;-48
2023/03/24 09:25:33;;;;;;;5.90;3.20;;;14.10;99.90;;;;;;5140780;28;20189;-47
2023/03/24 09:28:05;;;;;;;4.20;3.13;;;14.00;99.90;;;;;;5140419;28;20277;-47
2023/03/24 09:30:36;;;;;;;3.80;3.50;;;14.00;99.90;;;;;;5138082;28;20375;-48
2023/03/24 09:33:07;;;;;;;7.63;3.47;;;14.00;99.90;;;;;;5139553;28;20435;-46
2023/03/24 09:35:38;;;;;;;3.40;3.13;;;14.10;99.90;;;;;;5142956;28;20193;-46
2023/03/24 09:38:10;;;;;;;3.50;3.30;;;14.30;99.90;;;;;;5143883;28;20204;-49
2023/03/24 09:40:42;;;;;;;5.03;3.83;;;14.40;99.90;;;;;;5138400;28;20221;-47
2023/03/24 09:43:34;;;;;;;5.70;3.70;;;14.60;99.90;;;;;;5141660;28;20436;-47
2023/03/24 09:46:11;;;;;;;3.53;3.20;;;14.80;99.90;;;;;;5140874;28;20445;-47
2023/03/24 09:48:52;;;;;;;4.70;3.27;;;15.20;99.90;;;;;;5143142;28;20516;-45
2023/03/24 09:51:26;;;;;;;3.47;3.30;;;15.70;99.90;;;;;;5139481;28;20477;-48
2023/03/24 09:54:21;;;;;;;3.30;2.97;;;16.00;99.90;;;;;;5139875;28;20812;-48
2023/03/24 09:56:53;;;;;;;6.77;3.57;;;16.50;99.90;;;;;;5158277;28;20448;-48
2023/03/24 09:59:38;;;;;;;4.70;3.10;;;16.80;99.90;;;;;;5142192;28;20445;-47
2023/03/24 10:02:15;;;;;;;3.43;3.17;;;16.90;99.90;;;;;;5142671;28;20478;-48
2023/03/24 10:04:46;;;;;;;3.10;2.80;;;17.10;99.90;;;;;;5140454;28;20445;-47
2023/03/24 10:07:46;;;;;;;4.67;2.63;;;17.30;99.90;;;;;;5137169;28;20455;-46
2023/03/24 10:10:28;;;;;;;3.00;2.73;;;17.20;99.90;;;;;;5123868;28;20440;-49
2023/03/24 10:13:06;;;;;;;3.30;3.10;;;17.00;99.90;;;;;;5123076;28;20440;-49
2023/03/24 10:15:48;;;;;;;9.33;2.97;;;17.10;99.90;;;;;;5128101;28;20436;-48
2023/03/24 10:18:21;;;;;;;4.50;2.80;;;17.20;99.90;;;;;;5145820;28;20488;-48
2023/03/24 10:21:12;;;;;;;2.30;2.10;;;17.00;99.90;;;;;;5143198;28;20461;-48
2023/03/24 10:24:01;;;;;;;3.20;2.90;;;17.00;99.90;;;;;;5139666;28;20449;-48
2023/03/24 10:27:01;;;;;;;1.97;1.87;;;17.10;99.90;;;;;;5146307;28;20436;-48
2023/03/24 10:29:34;;;;;;;4.50;2.20;;;17.30;99.90;;;;;;5136583;28;20429;-54
2023/03/24 10:32:15;;;;;;;1.87;1.80;;;17.60;99.90;;;;;;5139133;28;20467;-47
2023/03/24 10:34:49;;;;;;;2.27;2.10;;;17.70;99.90;;;;;;5138908;28;20437;-45
2023/03/24 10:37:20;;;;;;;3.20;2.63;;;17.60;99.90;;;;;;5140472;28;20460;-49
2023/03/24 10:39:51;;;;;;;3.33;3.10;;;17.60;99.90;;;;;;5138217;28;20433;-47
2023/03/24 10:42:30;;;;;;;5.00;3.77;;;17.70;99.90;;;;;;5140820;28;20487;-49
2023/03/24 10:45:02;;;;;;;2.60;2.40;;;17.90;99.90;;;;;;5136910;28;20275;-46
2023/03/24 10:47:33;;;;;;;2.93;1.57;;;18.20;99.90;;;;;;5141767;28;20574;-48
2023/03/24 10:50:08;;;;;;;2.90;2.70;;;18.60;99.90;;;;;;5137610;28;20456;-46
2023/03/24 10:52:44;;;;;;;3.03;2.80;;;18.70;99.90;;;;;;5137931;28;20551;-47
2023/03/24 10:55:17;;;;;;;2.07;1.97;;;18.80;99.90;;;;;;5143861;28;20495;-48
2023/03/24 10:57:52;;;;;;;3.03;2.83;;;18.60;99.90;;;;;;5137846;28;20444;-48
2023/03/24 11:00:30;;;;;;;6.00;2.90;;;18.30;99.90;;;;;;5137843;28;20483;-48
2023/03/24 11:03:04;;;;;;;2.13;1.97;;;18.00;99.90;;;;;;5141209;28;20437;-48
2023/03/24 11:05:37;;;;;;;2.47;1.90;;;17.90;99.90;;;;;;5140439;28;20447;-48
2023/03/24 11:08:38;;;;;;;2.67;2.40;;;17.90;99.90;;;;;;5139580;28;20527;-49
2023/03/24 11:11:19;;;;;;;1.80;1.80;;;18.00;99.90;;;;;;5138575;28;20527;-49
2023/03/24 11:14:00;;;;;;;2.93;2.73;;;18.00;99.90;;;;;;5135016;28;20463;-48
2023/03/24 11:16:36;;;;;;;1.90;1.90;;;17.70;99.90;;;;;;5133714;28;20456;-49
2023/03/24 11:19:18;;;;;;;3.13;2.50;;;17.80;99.90;;;;;;5137830;28;20436;-49
2023/03/24 11:21:51;;;;;;;2.20;2.10;;;18.00;99.90;;;;;;5138679;28;20482;-48
2023/03/24 11:24:22;;;;;;;3.10;2.93;;;18.00;99.90;;;;;;5140859;28;20437;-49
2023/03/24 11:27:02;;;;;;;9.90;7.67;;;18.00;99.90;;;;;;5139160;28;20456;-48
2023/03/24 11:29:38;;;;;;;3.10;2.90;;;18.40;99.90;;;;;;5146903;28;20345;-47
2023/03/24 11:32:16;;;;;;;4.87;3.50;;;18.50;99.90;;;;;;5144575;28;20531;-48
2023/03/24 11:34:55;;;;;;;5.13;3.33;;;18.70;99.90;;;;;;5138556;28;20437;-48
2023/03/24 11:37:32;;;;;;;4.40;4.13;;;18.80;99.90;;;;;;5154583;28;20482;-48
2023/03/24 11:40:11;;;;;;;2.43;2.33;;;18.70;99.90;;;;;;5134872;28;20463;-49
2023/03/24 11:42:43;;;;;;;2.13;2.03;;;18.90;99.90;;;;;;5140782;28;20503;-47
2023/03/24 11:45:27;;;;;;;2.10;2.00;;;18.90;99.90;;;;;;5145298;28;20444;-48
2023/03/24 11:47:58;;;;;;;2.40;2.20;;;19.10;99.90;;;;;;5144931;28;20472;-47
2023/03/24 11:50:32;;;;;;;6.13;2.67;;;19.20;99.90;;;;;;5093063;28;1448050;-48
2023/03/24 11:53:17;;;;;;;3.40;3.20;;;19.30;99.90;;;;;;5141639;28;20948;-47
2023/03/24 11:55:48;;;;;;;7.47;3.90;;;19.50;99.90;;;;;;5139577;28;20455;-49
2023/03/24 11:58:23;;;;;;;2.50;2.23;;;19.30;99.90;;;;;;5144278;28;20436;-48
2023/03/24 12:01:00;;;;;;;4.43;2.60;;;19.20;99.90;;;;;;5144996;28;20216;-48
2023/03/24 12:03:49;;;;;;;7.80;3.37;;;19.20;99.50;;;;;;5145955;28;20761;-47
2023/03/24 12:06:44;;;;;;;6.73;3.87;;;19.10;99.60;;;;;;5158954;28;20959;-49
2023/03/24 12:09:30;;;;;;;8.43;3.57;;;18.80;99.60;;;;;;5158310;28;20480;-49
2023/03/24 12:12:20;;;;;;;3.33;2.80;;;19.00;99.30;;;;;;5144027;28;20461;-48
2023/03/24 12:15:12;;;;;;;8.40;2.10;;;18.90;98.90;;;;;;5134599;28;20456;-50
2023/03/24 12:17:51;;;;;;;2.30;2.20;;;18.80;98.50;;;;;;5141026;28;20429;-49
2023/03/24 12:20:33;;;;;;;6.73;2.93;;;18.90;98.80;;;;;;5144524;28;20977;-51
2023/03/24 12:23:18;;;;;;;2.20;2.10;;;18.90;99.90;;;;;;5141405;28;20868;-51
2023/03/24 12:26:13;;;;;;;7.17;4.33;;;19.00;99.00;;;;;;5148409;28;20424;-50
2023/03/24 12:29:06;;;;;;;5.77;5.23;;;18.90;96.30;;;;;;5148084;28;20799;-48
2023/03/24 12:32:09;;;;;;;2.40;2.30;;;18.30;96.20;;;;;;5137003;28;20531;-49
2023/03/24 12:35:11;;;;;;;7.13;5.70;;;17.90;97.10;;;;;;5140141;28;20444;-46
2023/03/24 12:37:41;;;;;;;4.10;2.40;;;17.70;99.20;;;;;;5157650;28;20436;-47
2023/03/24 12:40:36;;;;;;;3.17;2.40;;;17.70;99.90;;;;;;5144079;28;20437;-49
2023/03/24 12:43:31;;;;;;;4.10;2.13;;;17.70;99.90;;;;;;5147068;28;20184;-49
2023/03/24 12:46:34;;;;;;;1.80;1.80;;;17.80;98.70;;;;;;5155142;28;20440;-49
2023/03/24 12:49:22;;;;;;;4.73;3.67;;;17.80;93.90;;;;;;5141169;28;20448;-49
2023/03/24 12:52:13;;;;;;;10.83;5.03;;;17.50;91.60;;;;;;5143437;28;20473;-47
2023/03/24 12:55:03;;;;;;;4.73;3.10;;;17.40;91.60;;;;;;5139389;28;20434;-52
2023/03/24 12:57:59;;;;;;;5.00;3.60;;;17.20;92.50;;;;;;5158504;28;20433;-49
2023/03/24 13:00:35;;;;;;;1.70;1.60;;;17.20;93.50;;;;;;5163854;28;20532;-46
2023/03/24 13:03:25;;;;;;;4.23;3.77;;;17.10;92.90;;;;;;5144491;28;20583;-47
2023/03/24 13:06:04;;;;;;;3.17;2.97;;;17.00;92.20;;;;;;5143374;28;20441;-46
2023/03/24 13:08:37;;;;;;;1.50;1.50;;;16.90;92.60;;;;;;5141720;28;20429;-49
2023/03/24 13:11:13;;;;;;;2.10;1.53;;;16.70;92.80;;;;;;5139511;28;20468;-47
2023/03/24 13:13:45;;;;;;;4.30;1.90;;;16.60;93.80;;;;;;5144415;28;20467;-49
2023/03/24 13:16:22;;;;;;;1.97;1.87;;;16.50;95.00;;;;;;5138514;28;20452;-49
2023/03/24 13:18:59;;;;;;;5.27;4.03;;;16.40;95.30;;;;;;5140936;28;20440;-46
2023/03/24 13:21:33;;;;;;;4.80;3.23;;;16.30;96.00;;;;;;5148762;28;20551;-46
2023/03/24 13:24:11;;;;;;;1.73;1.53;;;16.20;97.00;;;;;;5141848;28;20498;-48
2023/03/24 13:27:15;;;;;;;5.57;1.80;;;16.20;97.60;;;;;;5139048;28;21419;-48
2023/03/24 13:30:06;;;;;;;1.63;1.53;;;16.00;97.80;;;;;;5136666;28;20436;-48
2023/03/24 13:32:58;;;;;;;4.53;1.30;;;15.90;98.10;;;;;;5143881;28;20439;-47
2023/03/24 13:35:52;;;;;;;2.70;2.50;;;15.90;96.40;;;;;;5140624;28;20447;-48